sensor_id;sensor_type;location;lat;lon;timestamp;pressure;altitude;pressure_sealevel;temperature;humidity
73245;BME280;61460;41.158;-73.238;2022-09-24T00:01:54;101328.40;;;24.62;58.10
73245;BME280;61460;41.158;-73.238;2022-09-24T00:04:25;101336.58;;;24.40;58.05
73245;BME280;61460;41.158;-73.238;2022-09-24T00:06:55;101347.76;;;24.59;57.29
73245;BME280;61460;41.158;-73.238;2022-09-24T00:09:26;101342.29;;;24.72;56.65
73245;BME280;61460;41.158;-73.238;2022-09-24T00:11:56;101339.77;;;24.65;56.64
73245;BME280;61460;41.158;-73.238;2022-09-24T00:14:27;101349.78;;;24.50;56.78
73245;BME280;61460;41.158;-73.238;2022-09-24T00:16:58;101351.59;;;24.55;56.41
73245;BME280;61460;41.158;-73.238;2022-09-24T00:19:29;101352.85;;;24.53;55.94
73245;BME280;61460;41.158;-73.238;2022-09-24T00:21:59;101353.06;;;24.38;56.59
73245;BME280;61460;41.158;-73.238;2022-09-24T00:24:29;101349.83;;;24.34;55.95
73245;BME280;61460;41.158;-73.238;2022-09-24T00:27:01;101353.91;;;24.51;55.55
73245;BME280;61460;41.158;-73.238;2022-09-24T00:29:30;101353.21;;;24.38;55.36
73245;BME280;61460;41.158;-73.238;2022-09-24T00:32:04;101356.92;;;24.35;55.26
73245;BME280;61460;41.158;-73.238;2022-09-24T00:34:32;101352.70;;;24.19;55.83
73245;BME280;61460;41.158;-73.238;2022-09-24T00:37:02;101356.88;;;24.12;55.66
73245;BME280;61460;41.158;-73.238;2022-09-24T00:39:33;101365.74;;;23.73;56.55
73245;BME280;61460;41.158;-73.238;2022-09-24T00:42:04;101366.95;;;24.08;55.48
73245;BME280;61460;41.158;-73.238;2022-09-24T00:44:46;101365.49;;;24.07;55.43
73245;BME280;61460;41.158;-73.238;2022-09-24T00:47:05;101360.45;;;24.21;55.15
73245;BME280;61460;41.158;-73.238;2022-09-24T00:49:35;101371.59;;;23.99;55.62
73245;BME280;61460;41.158;-73.238;2022-09-24T00:52:06;101371.15;;;24.05;55.63
73245;BME280;61460;41.158;-73.238;2022-09-24T00:54:36;101379.96;;;23.96;55.52
73245;BME280;61460;41.158;-73.238;2022-09-24T00:57:07;101383.96;;;23.64;56.13
73245;BME280;61460;41.158;-73.238;2022-09-24T00:59:38;101380.77;;;23.84;55.35
73245;BME280;61460;41.158;-73.238;2022-09-24T01:02:08;101388.72;;;23.69;55.43
73245;BME280;61460;41.158;-73.238;2022-09-24T01:04:39;101391.31;;;23.72;55.19
73245;BME280;61460;41.158;-73.238;2022-09-24T01:07:09;101402.90;;;23.72;54.87
73245;BME280;61460;41.158;-73.238;2022-09-24T01:09:40;101398.85;;;23.34;55.35
73245;BME280;61460;41.158;-73.238;2022-09-24T01:12:16;101402.35;;;23.53;54.58
73245;BME280;61460;41.158;-73.238;2022-09-24T01:14:51;101407.14;;;23.86;53.94
73245;BME280;61460;41.158;-73.238;2022-09-24T01:17:17;101406.10;;;23.81;53.96
73245;BME280;61460;41.158;-73.238;2022-09-24T01:19:51;101408.14;;;23.64;53.89
73245;BME280;61460;41.158;-73.238;2022-09-24T01:22:21;101411.15;;;23.62;53.46
73245;BME280;61460;41.158;-73.238;2022-09-24T01:24:54;101424.19;;;23.59;53.45
73245;BME280;61460;41.158;-73.238;2022-09-24T01:27:17;101431.24;;;23.70;53.02
73245;BME280;61460;41.158;-73.238;2022-09-24T01:29:50;101432.21;;;23.44;53.19
73245;BME280;61460;41.158;-73.238;2022-09-24T01:32:17;101437.41;;;23.42;53.34
73245;BME280;61460;41.158;-73.238;2022-09-24T01:34:50;101438.03;;;23.48;52.81
73245;BME280;61460;41.158;-73.238;2022-09-24T01:37:18;101433.26;;;23.33;53.10
73245;BME280;61460;41.158;-73.238;2022-09-24T01:39:47;101441.45;;;23.51;52.45
73245;BME280;61460;41.158;-73.238;2022-09-24T01:42:18;101444.49;;;23.58;52.26
73245;BME280;61460;41.158;-73.238;2022-09-24T01:44:48;101455.97;;;23.19;52.78
73245;BME280;61460;41.158;-73.238;2022-09-24T01:47:21;101462.54;;;23.47;52.26
73245;BME280;61460;41.158;-73.238;2022-09-24T01:49:48;101454.57;;;23.31;52.28
73245;BME280;61460;41.158;-73.238;2022-09-24T01:52:23;101461.52;;;23.39;51.87
73245;BME280;61460;41.158;-73.238;2022-09-24T01:54:51;101464.71;;;23.52;51.53
73245;BME280;61460;41.158;-73.238;2022-09-24T01:57:22;101465.29;;;23.35;51.79
73245;BME280;61460;41.158;-73.238;2022-09-24T01:59:54;101467.45;;;23.01;52.75
73245;BME280;61460;41.158;-73.238;2022-09-24T02:02:25;101465.17;;;23.44;51.73
73245;BME280;61460;41.158;-73.238;2022-09-24T02:04:57;101466.21;;;22.92;52.92
73245;BME280;61460;41.158;-73.238;2022-09-24T02:07:26;101467.33;;;23.35;52.08
73245;BME280;61460;41.158;-73.238;2022-09-24T02:09:53;101465.82;;;23.26;52.26
73245;BME280;61460;41.158;-73.238;2022-09-24T02:12:28;101464.93;;;23.46;51.56
73245;BME280;61460;41.158;-73.238;2022-09-24T02:14:58;101469.71;;;23.40;52.01
73245;BME280;61460;41.158;-73.238;2022-09-24T02:17:27;101471.97;;;23.27;52.07
73245;BME280;61460;41.158;-73.238;2022-09-24T02:19:56;101482.06;;;23.37;52.11
73245;BME280;61460;41.158;-73.238;2022-09-24T02:22:26;101479.35;;;23.01;52.86
73245;BME280;61460;41.158;-73.238;2022-09-24T02:24:58;101480.19;;;23.36;52.29
73245;BME280;61460;41.158;-73.238;2022-09-24T02:27:27;101477.79;;;23.35;52.34
73245;BME280;61460;41.158;-73.238;2022-09-24T02:29:58;101478.30;;;23.38;52.41
73245;BME280;61460;41.158;-73.238;2022-09-24T02:32:30;101487.24;;;23.26;52.95
73245;BME280;61460;41.158;-73.238;2022-09-24T02:35:01;101489.81;;;23.10;53.37
73245;BME280;61460;41.158;-73.238;2022-09-24T02:37:34;101492.80;;;23.30;52.62
73245;BME280;61460;41.158;-73.238;2022-09-24T02:40:00;101498.12;;;23.38;52.70
73245;BME280;61460;41.158;-73.238;2022-09-24T02:42:30;101498.79;;;23.32;52.81
73245;BME280;61460;41.158;-73.238;2022-09-24T02:45:01;101511.74;;;23.47;52.42
73245;BME280;61460;41.158;-73.238;2022-09-24T02:47:31;101512.00;;;23.18;53.20
73245;BME280;61460;41.158;-73.238;2022-09-24T02:50:02;101520.84;;;23.20;53.05
73245;BME280;61460;41.158;-73.238;2022-09-24T02:52:32;101535.74;;;23.42;52.53
73245;BME280;61460;41.158;-73.238;2022-09-24T02:55:03;101541.05;;;23.38;52.54
73245;BME280;61460;41.158;-73.238;2022-09-24T02:57:34;101553.60;;;23.30;52.88
73245;BME280;61460;41.158;-73.238;2022-09-24T03:00:05;101559.52;;;23.29;53.00
73245;BME280;61460;41.158;-73.238;2022-09-24T03:02:35;101568.42;;;23.25;53.04
73245;BME280;61460;41.158;-73.238;2022-09-24T03:05:06;101561.66;;;23.16;53.32
73245;BME280;61460;41.158;-73.238;2022-09-24T03:07:36;101565.95;;;23.11;53.62
73245;BME280;61460;41.158;-73.238;2022-09-24T03:10:08;101568.92;;;22.85;54.06
73245;BME280;61460;41.158;-73.238;2022-09-24T03:12:37;101572.91;;;22.74;54.33
73245;BME280;61460;41.158;-73.238;2022-09-24T03:15:08;101572.65;;;22.74;54.64
73245;BME280;61460;41.158;-73.238;2022-09-24T03:17:38;101573.72;;;22.84;54.35
73245;BME280;61460;41.158;-73.238;2022-09-24T03:20:09;101574.95;;;22.91;54.13
73245;BME280;61460;41.158;-73.238;2022-09-24T03:22:39;101572.96;;;23.02;53.96
73245;BME280;61460;41.158;-73.238;2022-09-24T03:25:10;101572.57;;;22.98;54.12
73245;BME280;61460;41.158;-73.238;2022-09-24T03:27:40;101570.44;;;23.07;53.96
73245;BME280;61460;41.158;-73.238;2022-09-24T03:30:12;101561.05;;;23.16;53.80
73245;BME280;61460;41.158;-73.238;2022-09-24T03:32:41;101563.23;;;23.31;53.38
73245;BME280;61460;41.158;-73.238;2022-09-24T03:35:12;101576.15;;;23.26;53.55
73245;BME280;61460;41.158;-73.238;2022-09-24T03:37:42;101574.87;;;23.28;53.50
73245;BME280;61460;41.158;-73.238;2022-09-24T03:40:13;101576.32;;;23.30;53.47
73245;BME280;61460;41.158;-73.238;2022-09-24T03:42:44;101575.38;;;23.26;53.61
73245;BME280;61460;41.158;-73.238;2022-09-24T03:45:14;101579.84;;;23.32;53.38
73245;BME280;61460;41.158;-73.238;2022-09-24T03:47:45;101583.51;;;23.33;53.28
73245;BME280;61460;41.158;-73.238;2022-09-24T03:50:15;101581.34;;;23.07;53.94
73245;BME280;61460;41.158;-73.238;2022-09-24T03:52:46;101582.18;;;22.86;54.53
73245;BME280;61460;41.158;-73.238;2022-09-24T03:55:17;101581.95;;;22.87;54.37
73245;BME280;61460;41.158;-73.238;2022-09-24T03:57:47;101573.27;;;23.08;53.90
73245;BME280;61460;41.158;-73.238;2022-09-24T04:00:18;101570.36;;;23.05;53.83
73245;BME280;61460;41.158;-73.238;2022-09-24T04:02:48;101571.03;;;23.06;53.84
73245;BME280;61460;41.158;-73.238;2022-09-24T04:05:19;101572.71;;;22.95;54.11
73245;BME280;61460;41.158;-73.238;2022-09-24T04:07:49;101572.81;;;23.10;53.66
73245;BME280;61460;41.158;-73.238;2022-09-24T04:10:20;101570.06;;;22.70;54.63
73245;BME280;61460;41.158;-73.238;2022-09-24T04:12:51;101571.61;;;23.08;53.51
73245;BME280;61460;41.158;-73.238;2022-09-24T04:15:22;101574.82;;;23.00;53.68
73245;BME280;61460;41.158;-73.238;2022-09-24T04:17:54;101571.55;;;22.95;53.81
73245;BME280;61460;41.158;-73.238;2022-09-24T04:20:24;101571.94;;;22.92;53.86
73245;BME280;61460;41.158;-73.238;2022-09-24T04:22:55;101577.80;;;22.60;54.73
73245;BME280;61460;41.158;-73.238;2022-09-24T04:25:25;101574.23;;;22.87;54.04
73245;BME280;61460;41.158;-73.238;2022-09-24T04:27:56;101574.81;;;22.69;54.33
73245;BME280;61460;41.158;-73.238;2022-09-24T04:30:26;101578.30;;;22.66;54.40
73245;BME280;61460;41.158;-73.238;2022-09-24T04:32:55;101570.35;;;22.80;54.23
73245;BME280;61460;41.158;-73.238;2022-09-24T04:35:28;101574.33;;;22.75;54.37
73245;BME280;61460;41.158;-73.238;2022-09-24T04:37:57;101576.77;;;22.93;53.81
73245;BME280;61460;41.158;-73.238;2022-09-24T04:40:27;101576.92;;;22.52;54.88
73245;BME280;61460;41.158;-73.238;2022-09-24T04:42:57;101571.75;;;22.49;54.96
73245;BME280;61460;41.158;-73.238;2022-09-24T04:45:28;101562.14;;;22.62;54.66
73245;BME280;61460;41.158;-73.238;2022-09-24T04:47:59;101556.01;;;22.63;54.43
73245;BME280;61460;41.158;-73.238;2022-09-24T04:50:30;101545.73;;;22.59;54.60
73245;BME280;61460;41.158;-73.238;2022-09-24T04:53:00;101543.82;;;22.54;54.74
73245;BME280;61460;41.158;-73.238;2022-09-24T04:55:30;101528.93;;;22.69;54.38
73245;BME280;61460;41.158;-73.238;2022-09-24T04:58:01;101527.47;;;22.65;54.46
73245;BME280;61460;41.158;-73.238;2022-09-24T05:00:32;101525.37;;;22.57;54.62
73245;BME280;61460;41.158;-73.238;2022-09-24T05:03:02;101525.29;;;22.68;54.26
73245;BME280;61460;41.158;-73.238;2022-09-24T05:05:34;101528.39;;;22.70;54.09
73245;BME280;61460;41.158;-73.238;2022-09-24T05:08:03;101527.87;;;22.75;53.89
73245;BME280;61460;41.158;-73.238;2022-09-24T05:10:34;101523.52;;;22.82;53.69
73245;BME280;61460;41.158;-73.238;2022-09-24T05:13:04;101525.36;;;22.80;53.50
73245;BME280;61460;41.158;-73.238;2022-09-24T05:15:35;101529.54;;;22.74;53.68
73245;BME280;61460;41.158;-73.238;2022-09-24T05:18:06;101525.54;;;22.84;53.42
73245;BME280;61460;41.158;-73.238;2022-09-24T05:20:36;101527.57;;;22.56;54.27
73245;BME280;61460;41.158;-73.238;2022-09-24T05:23:07;101517.68;;;22.60;54.05
73245;BME280;61460;41.158;-73.238;2022-09-24T05:25:38;101510.62;;;22.73;53.79
73245;BME280;61460;41.158;-73.238;2022-09-24T05:28:08;101504.73;;;22.56;54.20
73245;BME280;61460;41.158;-73.238;2022-09-24T05:30:38;101497.32;;;22.51;54.30
73245;BME280;61460;41.158;-73.238;2022-09-24T05:33:09;101492.55;;;22.56;54.14
73245;BME280;61460;41.158;-73.238;2022-09-24T05:35:40;101495.78;;;22.67;53.79
73245;BME280;61460;41.158;-73.238;2022-09-24T05:38:10;101494.52;;;22.70;53.81
73245;BME280;61460;41.158;-73.238;2022-09-24T05:40:41;101506.57;;;22.60;53.86
73245;BME280;61460;41.158;-73.238;2022-09-24T05:43:11;101505.15;;;22.75;53.49
73245;BME280;61460;41.158;-73.238;2022-09-24T05:45:43;101512.95;;;22.62;53.74
73245;BME280;61460;41.158;-73.238;2022-09-24T05:48:13;101514.34;;;22.69;53.57
73245;BME280;61460;41.158;-73.238;2022-09-24T05:50:43;101511.70;;;22.80;53.12
73245;BME280;61460;41.158;-73.238;2022-09-24T05:53:14;101519.91;;;22.72;53.29
73245;BME280;61460;41.158;-73.238;2022-09-24T05:55:44;101522.50;;;22.53;53.88
73245;BME280;61460;41.158;-73.238;2022-09-24T05:58:15;101518.10;;;22.84;53.07
73245;BME280;61460;41.158;-73.238;2022-09-24T06:00:46;101510.09;;;22.83;52.98
73245;BME280;61460;41.158;-73.238;2022-09-24T06:03:17;101506.15;;;22.65;53.46
73245;BME280;61460;41.158;-73.238;2022-09-24T06:05:48;101497.41;;;22.68;53.46
73245;BME280;61460;41.158;-73.238;2022-09-24T06:08:19;101497.87;;;22.69;53.33
73245;BME280;61460;41.158;-73.238;2022-09-24T06:10:48;101500.41;;;22.64;53.40
73245;BME280;61460;41.158;-73.238;2022-09-24T06:13:19;101499.28;;;22.69;53.40
73245;BME280;61460;41.158;-73.238;2022-09-24T06:15:49;101496.40;;;22.70;53.25
73245;BME280;61460;41.158;-73.238;2022-09-24T06:18:20;101494.43;;;22.48;53.83
73245;BME280;61460;41.158;-73.238;2022-09-24T06:20:50;101490.01;;;22.40;54.14
73245;BME280;61460;41.158;-73.238;2022-09-24T06:23:21;101490.45;;;22.66;53.40
73245;BME280;61460;41.158;-73.238;2022-09-24T06:25:51;101487.39;;;22.39;54.00
73245;BME280;61460;41.158;-73.238;2022-09-24T06:28:22;101480.16;;;22.46;53.85
73245;BME280;61460;41.158;-73.238;2022-09-24T06:30:53;101480.43;;;22.41;53.98
73245;BME280;61460;41.158;-73.238;2022-09-24T06:33:23;101480.96;;;22.09;54.84
73245;BME280;61460;41.158;-73.238;2022-09-24T06:35:54;101483.27;;;22.61;53.36
73245;BME280;61460;41.158;-73.238;2022-09-24T06:38:25;101483.60;;;22.11;54.47
73245;BME280;61460;41.158;-73.238;2022-09-24T06:40:58;101482.60;;;22.27;54.19
73245;BME280;61460;41.158;-73.238;2022-09-24T06:43:26;101481.52;;;22.33;54.01
73245;BME280;61460;41.158;-73.238;2022-09-24T06:45:57;101481.92;;;22.32;53.89
73245;BME280;61460;41.158;-73.238;2022-09-24T06:48:27;101476.99;;;22.41;53.78
73245;BME280;61460;41.158;-73.238;2022-09-24T06:50:57;101477.91;;;22.36;53.93
73245;BME280;61460;41.158;-73.238;2022-09-24T06:53:28;101476.35;;;22.37;53.75
73245;BME280;61460;41.158;-73.238;2022-09-24T06:55:59;101474.02;;;22.52;53.41
73245;BME280;61460;41.158;-73.238;2022-09-24T06:58:29;101467.72;;;22.34;53.82
73245;BME280;61460;41.158;-73.238;2022-09-24T07:01:01;101464.81;;;22.22;54.05
73245;BME280;61460;41.158;-73.238;2022-09-24T07:03:32;101464.33;;;22.17;54.04
73245;BME280;61460;41.158;-73.238;2022-09-24T07:06:03;101460.83;;;22.39;53.49
73245;BME280;61460;41.158;-73.238;2022-09-24T07:08:31;101466.78;;;21.84;54.86
73245;BME280;61460;41.158;-73.238;2022-09-24T07:11:02;101470.51;;;22.04;54.45
73245;BME280;61460;41.158;-73.238;2022-09-24T07:13:33;101469.65;;;22.01;54.46
73245;BME280;61460;41.158;-73.238;2022-09-24T07:16:03;101468.90;;;22.02;54.48
73245;BME280;61460;41.158;-73.238;2022-09-24T07:18:34;101465.31;;;21.83;54.88
73245;BME280;61460;41.158;-73.238;2022-09-24T07:21:05;101462.10;;;22.21;53.86
73245;BME280;61460;41.158;-73.238;2022-09-24T07:23:35;101459.97;;;21.69;55.18
73245;BME280;61460;41.158;-73.238;2022-09-24T07:26:05;101452.64;;;22.19;53.87
73245;BME280;61460;41.158;-73.238;2022-09-24T07:28:36;101441.45;;;22.10;53.83
73245;BME280;61460;41.158;-73.238;2022-09-24T07:31:07;101438.16;;;22.18;53.67
73245;BME280;61460;41.158;-73.238;2022-09-24T07:33:37;101436.93;;;22.30;53.31
73245;BME280;61460;41.158;-73.238;2022-09-24T07:36:08;101434.14;;;22.18;53.60
73245;BME280;61460;41.158;-73.238;2022-09-24T07:38:38;101434.10;;;21.79;54.55
73245;BME280;61460;41.158;-73.238;2022-09-24T07:41:09;101435.32;;;22.03;53.95
73245;BME280;61460;41.158;-73.238;2022-09-24T07:43:39;101440.15;;;22.17;53.61
73245;BME280;61460;41.158;-73.238;2022-09-24T07:46:10;101435.95;;;22.19;53.43
73245;BME280;61460;41.158;-73.238;2022-09-24T07:48:41;101436.12;;;22.04;53.67
73245;BME280;61460;41.158;-73.238;2022-09-24T07:51:11;101443.67;;;21.96;53.91
73245;BME280;61460;41.158;-73.238;2022-09-24T07:53:42;101456.32;;;22.07;53.72
73245;BME280;61460;41.158;-73.238;2022-09-24T07:56:12;101453.01;;;22.25;53.25
73245;BME280;61460;41.158;-73.238;2022-09-24T07:58:43;101458.29;;;22.01;53.86
73245;BME280;61460;41.158;-73.238;2022-09-24T08:01:14;101457.39;;;21.84;54.20
73245;BME280;61460;41.158;-73.238;2022-09-24T08:03:45;101461.97;;;21.86;54.29
73245;BME280;61460;41.158;-73.238;2022-09-24T08:06:15;101465.32;;;21.94;54.20
73245;BME280;61460;41.158;-73.238;2022-09-24T08:08:48;101463.18;;;22.12;53.58
73245;BME280;61460;41.158;-73.238;2022-09-24T08:11:16;101464.21;;;22.09;53.74
73245;BME280;61460;41.158;-73.238;2022-09-24T08:13:47;101465.69;;;22.20;53.29
73245;BME280;61460;41.158;-73.238;2022-09-24T08:16:17;101460.87;;;22.07;53.54
73245;BME280;61460;41.158;-73.238;2022-09-24T08:18:48;101455.04;;;22.32;52.96
73245;BME280;61460;41.158;-73.238;2022-09-24T08:21:18;101450.55;;;22.31;52.98
73245;BME280;61460;41.158;-73.238;2022-09-24T08:23:49;101446.91;;;22.17;53.38
73245;BME280;61460;41.158;-73.238;2022-09-24T08:26:20;101444.52;;;22.08;53.58
73245;BME280;61460;41.158;-73.238;2022-09-24T08:28:50;101447.56;;;21.99;53.82
73245;BME280;61460;41.158;-73.238;2022-09-24T08:31:21;101444.40;;;21.88;54.08
73245;BME280;61460;41.158;-73.238;2022-09-24T08:33:51;101445.47;;;21.73;54.26
73245;BME280;61460;41.158;-73.238;2022-09-24T08:36:22;101452.47;;;21.96;53.90
73245;BME280;61460;41.158;-73.238;2022-09-24T08:38:53;101463.38;;;21.84;54.08
73245;BME280;61460;41.158;-73.238;2022-09-24T08:41:39;101463.62;;;21.79;54.23
73245;BME280;61460;41.158;-73.238;2022-09-24T08:43:59;101463.64;;;21.82;54.12
73245;BME280;61460;41.158;-73.238;2022-09-24T08:46:29;101460.53;;;21.80;54.06
73245;BME280;61460;41.158;-73.238;2022-09-24T08:48:55;101453.22;;;21.63;54.66
73245;BME280;61460;41.158;-73.238;2022-09-24T08:51:27;101449.79;;;21.72;54.30
73245;BME280;61460;41.158;-73.238;2022-09-24T08:53:59;101459.70;;;21.68;54.44
73245;BME280;61460;41.158;-73.238;2022-09-24T08:56:30;101464.84;;;21.77;54.16
73245;BME280;61460;41.158;-73.238;2022-09-24T08:58:59;101475.79;;;21.73;54.41
73245;BME280;61460;41.158;-73.238;2022-09-24T09:01:36;101483.76;;;21.48;55.13
73245;BME280;61460;41.158;-73.238;2022-09-24T09:04:02;101478.14;;;21.75;54.50
73245;BME280;61460;41.158;-73.238;2022-09-24T09:06:45;101475.70;;;21.65;54.78
73245;BME280;61460;41.158;-73.238;2022-09-24T09:09:06;101471.52;;;21.64;54.80
73245;BME280;61460;41.158;-73.238;2022-09-24T09:11:34;101466.06;;;21.73;54.40
73245;BME280;61460;41.158;-73.238;2022-09-24T09:14:05;101466.16;;;21.58;54.92
73245;BME280;61460;41.158;-73.238;2022-09-24T09:16:39;101465.23;;;21.34;55.40
73245;BME280;61460;41.158;-73.238;2022-09-24T09:19:04;101471.85;;;21.49;54.94
73245;BME280;61460;41.158;-73.238;2022-09-24T09:21:38;101481.22;;;21.56;54.87
73245;BME280;61460;41.158;-73.238;2022-09-24T09:24:04;101493.33;;;21.67;54.32
73245;BME280;61460;41.158;-73.238;2022-09-24T09:26:34;101499.35;;;21.54;54.63
73245;BME280;61460;41.158;-73.238;2022-09-24T09:29:07;101511.47;;;21.44;55.07
73245;BME280;61460;41.158;-73.238;2022-09-24T09:31:40;101512.53;;;21.73;54.37
73245;BME280;61460;41.158;-73.238;2022-09-24T09:34:19;101506.70;;;21.75;54.14
73245;BME280;61460;41.158;-73.238;2022-09-24T09:36:45;101499.64;;;21.77;54.03
73245;BME280;61460;41.158;-73.238;2022-09-24T09:39:18;101499.12;;;21.85;53.80
73245;BME280;61460;41.158;-73.238;2022-09-24T09:41:43;101498.54;;;22.05;53.32
73245;BME280;61460;41.158;-73.238;2022-09-24T09:44:13;101504.25;;;21.99;53.33
73245;BME280;61460;41.158;-73.238;2022-09-24T09:46:43;101504.18;;;22.04;53.21
73245;BME280;61460;41.158;-73.238;2022-09-24T09:49:09;101510.01;;;22.14;52.78
73245;BME280;61460;41.158;-73.238;2022-09-24T09:51:42;101506.51;;;22.01;53.13
73245;BME280;61460;41.158;-73.238;2022-09-24T09:54:10;101501.44;;;22.07;53.01
73245;BME280;61460;41.158;-73.238;2022-09-24T09:56:43;101493.64;;;22.02;52.99
73245;BME280;61460;41.158;-73.238;2022-09-24T09:59:17;101495.95;;;22.10;52.74
73245;BME280;61460;41.158;-73.238;2022-09-24T10:01:45;101494.80;;;22.05;52.88
73245;BME280;61460;41.158;-73.238;2022-09-24T10:04:22;101492.98;;;22.09;52.70
73245;BME280;61460;41.158;-73.238;2022-09-24T10:06:43;101485.81;;;22.18;52.48
73245;BME280;61460;41.158;-73.238;2022-09-24T10:09:16;101481.58;;;22.14;52.55
73245;BME280;61460;41.158;-73.238;2022-09-24T10:11:45;101483.62;;;22.14;52.50
73245;BME280;61460;41.158;-73.238;2022-09-24T10:14:16;101488.42;;;22.15;52.50
73245;BME280;61460;41.158;-73.238;2022-09-24T10:16:50;101492.11;;;22.02;52.92
73245;BME280;61460;41.158;-73.238;2022-09-24T10:19:20;101489.74;;;21.67;53.68
73245;BME280;61460;41.158;-73.238;2022-09-24T10:21:48;101488.69;;;21.85;53.40
73245;BME280;61460;41.158;-73.238;2022-09-24T10:24:20;101480.61;;;21.67;53.74
73245;BME280;61460;41.158;-73.238;2022-09-24T10:26:48;101481.53;;;21.58;54.09
73245;BME280;61460;41.158;-73.238;2022-09-24T10:29:22;101479.31;;;21.51;54.13
73245;BME280;61460;41.158;-73.238;2022-09-24T10:31:49;101479.60;;;21.51;54.29
73245;BME280;61460;41.158;-73.238;2022-09-24T10:34:23;101474.91;;;21.52;54.26
73245;BME280;61460;41.158;-73.238;2022-09-24T10:36:52;101483.74;;;21.15;55.19
73245;BME280;61460;41.158;-73.238;2022-09-24T10:39:21;101488.19;;;21.19;54.92
73245;BME280;61460;41.158;-73.238;2022-09-24T10:41:53;101490.06;;;21.36;54.60
73245;BME280;61460;41.158;-73.238;2022-09-24T10:44:25;101493.09;;;21.39;54.52
73245;BME280;61460;41.158;-73.238;2022-09-24T10:47:06;101493.48;;;21.42;54.31
73245;BME280;61460;41.158;-73.238;2022-09-24T10:49:35;101493.58;;;21.27;54.53
73245;BME280;61460;41.158;-73.238;2022-09-24T10:52:00;101494.01;;;21.31;54.55
73245;BME280;61460;41.158;-73.238;2022-09-24T10:54:38;101491.67;;;21.36;54.42
73245;BME280;61460;41.158;-73.238;2022-09-24T10:56:56;101492.81;;;21.32;54.57
73245;BME280;61460;41.158;-73.238;2022-09-24T10:59:36;101506.01;;;21.22;54.86
73245;BME280;61460;41.158;-73.238;2022-09-24T11:02:08;101506.96;;;21.12;55.03
73245;BME280;61460;41.158;-73.238;2022-09-24T11:04:36;101505.76;;;21.33;54.60
73245;BME280;61460;41.158;-73.238;2022-09-24T11:09:35;101522.32;;;21.23;54.81
73245;BME280;61460;41.158;-73.238;2022-09-24T11:12:05;101523.71;;;21.42;54.20
73245;BME280;61460;41.158;-73.238;2022-09-24T11:14:45;101526.30;;;21.38;54.48
73245;BME280;61460;41.158;-73.238;2022-09-24T11:17:09;101529.81;;;21.10;55.01
73245;BME280;61460;41.158;-73.238;2022-09-24T11:22:08;101537.36;;;21.52;54.08
73245;BME280;61460;41.158;-73.238;2022-09-24T11:24:42;101542.28;;;21.49;54.02
73245;BME280;61460;41.158;-73.238;2022-09-24T11:27:12;101547.99;;;21.60;53.66
73245;BME280;61460;41.158;-73.238;2022-09-24T11:29:43;101551.89;;;21.84;53.10
73245;BME280;61460;41.158;-73.238;2022-09-24T11:32:10;101556.49;;;21.87;52.91
73245;BME280;61460;41.158;-73.238;2022-09-24T11:34:47;101560.98;;;21.80;53.11
73245;BME280;61460;41.158;-73.238;2022-09-24T11:37:15;101565.83;;;21.89;52.78
73245;BME280;61460;41.158;-73.238;2022-09-24T11:39:48;101570.32;;;21.95;52.75
73245;BME280;61460;41.158;-73.238;2022-09-24T11:42:13;101573.50;;;21.99;52.46
73245;BME280;61460;41.158;-73.238;2022-09-24T11:47:18;101574.67;;;21.95;52.64
73245;BME280;61460;41.158;-73.238;2022-09-24T11:49:50;101575.96;;;21.99;52.57
73245;BME280;61460;41.158;-73.238;2022-09-24T11:52:11;101572.46;;;22.11;52.27
73245;BME280;61460;41.158;-73.238;2022-09-24T11:54:44;101583.75;;;22.12;52.30
73245;BME280;61460;41.158;-73.238;2022-09-24T11:57:13;101577.90;;;22.18;52.13
73245;BME280;61460;41.158;-73.238;2022-09-24T11:59:44;101580.43;;;22.07;52.45
73245;BME280;61460;41.158;-73.238;2022-09-24T12:02:15;101580.63;;;22.34;51.88
73245;BME280;61460;41.158;-73.238;2022-09-24T12:04:51;101583.63;;;22.12;52.36
73245;BME280;61460;41.158;-73.238;2022-09-24T12:07:14;101578.39;;;22.60;51.11
73245;BME280;61460;41.158;-73.238;2022-09-24T12:09:47;101573.68;;;22.44;51.63
73245;BME280;61460;41.158;-73.238;2022-09-24T12:12:16;101572.98;;;22.59;51.55
73245;BME280;61460;41.158;-73.238;2022-09-24T12:14:48;101573.03;;;22.81;51.18
73245;BME280;61460;41.158;-73.238;2022-09-24T12:17:17;101572.31;;;22.99;50.90
73245;BME280;61460;41.158;-73.238;2022-09-24T12:19:49;101573.98;;;22.87;51.27
73245;BME280;61460;41.158;-73.238;2022-09-24T12:22:16;101565.80;;;22.99;51.14
73245;BME280;61460;41.158;-73.238;2022-09-24T12:24:51;101562.92;;;23.11;50.98
73245;BME280;61460;41.158;-73.238;2022-09-24T12:27:21;101559.77;;;23.19;51.05
73245;BME280;61460;41.158;-73.238;2022-09-24T12:29:52;101558.46;;;23.30;50.93
73245;BME280;61460;41.158;-73.238;2022-09-24T12:32:22;101558.35;;;23.21;51.20
73245;BME280;61460;41.158;-73.238;2022-09-24T12:34:54;101555.58;;;23.22;51.19
73245;BME280;61460;41.158;-73.238;2022-09-24T12:37:22;101552.19;;;23.20;51.17
73245;BME280;61460;41.158;-73.238;2022-09-24T12:39:53;101544.98;;;23.37;50.72
73245;BME280;61460;41.158;-73.238;2022-09-24T12:42:21;101536.43;;;23.28;50.91
73245;BME280;61460;41.158;-73.238;2022-09-24T12:44:53;101535.36;;;23.48;50.49
73245;BME280;61460;41.158;-73.238;2022-09-24T12:47:24;101544.84;;;23.28;50.84
73245;BME280;61460;41.158;-73.238;2022-09-24T12:49:54;101549.38;;;23.29;50.98
73245;BME280;61460;41.158;-73.238;2022-09-24T12:52:26;101552.13;;;23.26;51.06
73245;BME280;61460;41.158;-73.238;2022-09-24T12:54:55;101552.94;;;23.32;50.88